createdAt,value
2023-05-17T00:02:18.804Z,101456.91
2023-05-17T00:05:27.975Z,101454.78
2023-05-17T00:10:52.096Z,101455.94
2023-05-17T00:14:19.972Z,101453.22
2023-05-17T00:16:58.198Z,101456.56
2023-05-17T00:22:50.024Z,101457.59
2023-05-17T00:25:20.109Z,101450.97
2023-05-17T00:27:51.040Z,101454.66
2023-05-17T00:33:52.733Z,101446.28
2023-05-17T00:36:22.005Z,101444.16
2023-05-17T00:38:56.468Z,101436.50
2023-05-17T00:41:58.334Z,101446.59
2023-05-17T00:47:54.353Z,101438.47
2023-05-17T00:53:53.412Z,101456.56
2023-05-17T00:56:57.556Z,101455.50
2023-05-17T00:59:54.188Z,101461.13
2023-05-17T01:02:26.354Z,101460.03
2023-05-17T02:23:01.780Z,101435.63
2023-05-17T02:28:02.612Z,101443.28
2023-05-17T02:30:31.456Z,101442.56
2023-05-17T02:33:02.905Z,101448.09
2023-05-17T02:46:10.120Z,101456.38
2023-05-17T02:48:50.643Z,101462.50
2023-05-17T02:59:43.635Z,101474.41
2023-05-17T03:03:03.299Z,101466.28
2023-05-17T03:07:12.767Z,101468.09
2023-05-17T03:10:04.308Z,101461.84
2023-05-17T03:19:08.818Z,101481.53
2023-05-17T03:25:13.672Z,101489.66
2023-05-17T03:34:05.793Z,101508.19
2023-05-17T03:37:06.526Z,101507.88
2023-05-17T03:40:10.045Z,101513.41
2023-05-17T03:46:09.313Z,101517.38
2023-05-17T03:56:14.074Z,101528.00
2023-05-17T03:59:11.931Z,101533.63
2023-05-17T04:04:15.787Z,101537.69
2023-05-17T04:07:08.961Z,101545.75
2023-05-17T04:10:08.905Z,101544.53
2023-05-17T04:16:09.094Z,101545.06
2023-05-17T04:19:08.018Z,101551.03
2023-05-17T04:25:09.369Z,101555.56
2023-05-17T04:27:38.060Z,101554.47
2023-05-17T04:30:17.040Z,101565.59
2023-05-17T04:33:17.250Z,101573.03
2023-05-17T04:39:08.785Z,101577.22
2023-05-17T04:42:08.245Z,101585.72
2023-05-17T04:48:08.558Z,101590.25
2023-05-17T04:51:19.642Z,101592.19
2023-05-17T04:58:10.548Z,101587.75
2023-05-17T05:00:46.933Z,101592.09
2023-05-17T05:03:40.898Z,101591.34
2023-05-17T05:06:15.765Z,101584.28
2023-05-17T05:11:41.949Z,101596.81
2023-05-17T05:14:15.999Z,101594.03
2023-05-17T05:27:42.117Z,101595.81
2023-05-17T05:30:20.207Z,101600.03
2023-05-17T05:36:38.742Z,101605.41
2023-05-17T05:39:42.612Z,101609.56
2023-05-17T05:45:46.722Z,101617.31
2023-05-17T05:48:42.768Z,101613.56
2023-05-17T05:51:46.327Z,101609.56
2023-05-17T05:54:46.233Z,101615.16
2023-05-17T06:06:40.363Z,101602.97
2023-05-17T06:09:43.227Z,101603.19
2023-05-17T06:12:40.633Z,101602.47
2023-05-17T06:15:46.073Z,101594.44
2023-05-17T06:21:44.929Z,101586.69
2023-05-17T06:24:47.248Z,101584.94
2023-05-17T06:27:45.021Z,101576.41
2023-05-17T06:30:43.146Z,101585.88
2023-05-17T06:33:11.889Z,101577.75
2023-05-17T06:35:54.807Z,101575.84
2023-05-17T06:39:11.007Z,101575.00
2023-05-17T06:41:43.182Z,101577.91
2023-05-17T06:44:42.117Z,101586.25
2023-05-17T06:47:12.546Z,101584.25
2023-05-17T06:52:14.654Z,101581.47
2023-05-17T06:54:44.831Z,101582.13
2023-05-17T06:57:13.440Z,101584.03
2023-05-17T06:59:43.200Z,101589.47
2023-05-17T07:02:14.744Z,101584.25
2023-05-17T07:04:50.370Z,101588.97
2023-05-17T07:07:45.130Z,101583.72
2023-05-17T07:10:13.656Z,101585.09
2023-05-17T07:15:14.992Z,101595.47
2023-05-17T07:17:44.116Z,101599.28
2023-05-17T07:20:19.370Z,101605.13
2023-05-17T07:25:53.479Z,101590.94
2023-05-17T07:28:54.108Z,101597.75
2023-05-17T07:31:25.340Z,101593.31
2023-05-17T07:39:16.234Z,101582.91
2023-05-17T07:41:48.040Z,101585.56
2023-05-17T07:47:46.649Z,101581.78
2023-05-17T07:50:15.253Z,101579.53
2023-05-17T07:52:45.238Z,101578.44
2023-05-17T07:57:58.339Z,101577.50
2023-05-17T08:00:45.548Z,101578.06
2023-05-17T08:03:16.565Z,101571.97
2023-05-17T08:05:53.213Z,101573.03
2023-05-17T08:11:19.150Z,101573.13
2023-05-17T08:13:47.896Z,101575.13
2023-05-17T08:16:17.034Z,101580.47
2023-05-17T08:18:47.911Z,101580.88
2023-05-17T08:21:16.686Z,101575.84
2023-05-17T08:23:53.382Z,101585.88
2023-05-17T08:26:21.727Z,101580.94
2023-05-17T08:28:52.473Z,101578.34
2023-05-17T08:31:44.929Z,101575.22
2023-05-17T08:34:19.870Z,101576.19
2023-05-17T08:36:50.874Z,101571.22
2023-05-17T08:42:49.531Z,101564.88
2023-05-17T08:45:19.848Z,101563.16
2023-05-17T08:47:48.507Z,101558.78
2023-05-17T08:50:22.711Z,101559.81
2023-05-17T08:52:52.299Z,101555.69
2023-05-17T08:55:21.236Z,101553.97
2023-05-17T08:59:25.312Z,101555.81
2023-05-17T09:01:20.207Z,101558.75
2023-05-17T09:04:19.814Z,101555.31
2023-05-17T09:06:48.393Z,101556.59
2023-05-17T09:09:19.737Z,101547.63
2023-05-17T09:15:18.573Z,101542.88
2023-05-17T09:17:56.177Z,101550.03
2023-05-17T09:27:26.471Z,101546.47
2023-05-17T09:34:26.124Z,101543.81
2023-05-17T09:37:21.785Z,101542.97
2023-05-17T09:39:50.790Z,101537.03
2023-05-17T09:42:19.427Z,101534.66
2023-05-17T09:45:25.779Z,101529.22
2023-05-17T09:48:20.618Z,101526.00
2023-05-17T09:50:53.295Z,101528.78
2023-05-17T09:54:18.796Z,101523.44
2023-05-17T09:57:19.076Z,101531.72
2023-05-17T09:59:49.847Z,101527.44
2023-05-17T10:02:49.352Z,101543.41
2023-05-17T10:05:22.082Z,101534.81
2023-05-17T10:08:17.802Z,101533.28
2023-05-17T10:10:52.209Z,101536.75
2023-05-17T10:13:25.823Z,101530.56
2023-05-17T10:18:51.479Z,101526.09
2023-05-17T10:21:21.314Z,101527.91
2023-05-17T10:23:56.459Z,101524.34
2023-05-17T10:26:50.287Z,101520.75
2023-05-17T10:29:50.937Z,101522.81
2023-05-17T10:32:51.382Z,101523.78
2023-05-17T10:42:06.817Z,101530.81
2023-05-17T10:52:52.483Z,101531.69
2023-05-17T10:55:53.574Z,101520.25
2023-05-17T11:02:51.513Z,101512.72
2023-05-17T11:12:53.863Z,101520.31
2023-05-17T11:15:27.175Z,101522.03
2023-05-17T11:17:57.280Z,101518.44
2023-05-17T11:20:29.348Z,101524.59
2023-05-17T11:23:23.729Z,101522.22
2023-05-17T11:25:54.228Z,101518.13
2023-05-17T11:29:51.808Z,101516.22
2023-05-17T11:32:52.061Z,101520.69
2023-05-17T11:35:55.330Z,101524.97
2023-05-17T11:39:50.935Z,101530.88
2023-05-17T11:47:51.963Z,101531.28
2023-05-17T11:54:59.088Z,101535.06
2023-05-17T11:57:54.148Z,101542.13
2023-05-17T12:00:54.159Z,101538.44
2023-05-17T12:03:56.438Z,101532.03
2023-05-17T12:06:57.501Z,101535.56
2023-05-17T12:09:57.224Z,101542.03
2023-05-17T12:32:25.906Z,101545.91
2023-05-17T12:35:59.257Z,101545.00
2023-05-17T12:38:55.133Z,101539.22
2023-05-17T12:41:56.338Z,101536.75
2023-05-17T12:44:53.436Z,101535.91
2023-05-17T12:47:59.194Z,101539.28
2023-05-17T12:50:15.639Z,101545.81
2023-05-17T12:52:54.299Z,101545.81
2023-05-17T12:55:33.851Z,101544.78
2023-05-17T12:58:05.609Z,101540.31
2023-05-17T13:00:51.648Z,101542.22
2023-05-17T13:06:21.786Z,101551.97
2023-05-17T13:09:03.135Z,101558.34
2023-05-17T13:11:47.374Z,101561.94
2023-05-17T13:14:56.440Z,101558.34
2023-05-17T13:17:54.357Z,101561.00
2023-05-17T13:20:23.141Z,101569.91
2023-05-17T13:22:54.888Z,101560.38
2023-05-17T13:25:27.832Z,101560.56
2023-05-17T13:27:59.091Z,101562.19
2023-05-17T13:30:54.051Z,101557.41
2023-05-17T13:33:25.592Z,101550.06
2023-05-17T13:35:55.022Z,101566.56
2023-05-17T13:38:26.742Z,101565.50
2023-05-17T13:43:25.854Z,101562.59
2023-05-17T13:45:57.781Z,101567.72
2023-05-17T13:48:26.507Z,101572.19
2023-05-17T13:50:55.015Z,101568.75
2023-05-17T13:53:23.408Z,101575.72
2023-05-17T13:55:58.084Z,101583.72
2023-05-17T13:58:26.498Z,101584.94
2023-05-17T14:00:55.052Z,101584.13
2023-05-17T14:03:26.659Z,101579.00
2023-05-17T14:05:55.199Z,101581.56
2023-05-17T14:08:57.371Z,101583.28
2023-05-17T14:11:27.256Z,101589.75
2023-05-17T14:13:55.710Z,101590.63
2023-05-17T14:16:27.135Z,101602.13
2023-05-17T14:18:55.186Z,101595.94
2023-05-17T14:21:26.865Z,101603.84
2023-05-17T14:23:58.114Z,101599.19
2023-05-17T14:26:27.051Z,101599.88
2023-05-17T14:28:59.135Z,101597.13
2023-05-17T14:34:56.833Z,101596.28
2023-05-17T14:37:25.691Z,101591.03
2023-05-17T14:42:28.572Z,101594.72
2023-05-17T14:44:57.031Z,101591.31
2023-05-17T14:47:26.120Z,101598.94
2023-05-17T14:49:57.808Z,101601.28
2023-05-17T14:52:26.978Z,101599.38
2023-05-17T14:54:56.187Z,101606.59
2023-05-17T14:57:28.183Z,101602.28
2023-05-17T14:59:57.287Z,101605.13
2023-05-17T15:02:27.966Z,101603.41
2023-05-17T15:04:58.764Z,101613.13
2023-05-17T15:07:27.553Z,101610.72
2023-05-17T15:09:58.977Z,101614.44
2023-05-17T15:17:59.945Z,101609.28
2023-05-17T15:20:28.537Z,101609.94
2023-05-17T15:22:57.704Z,101612.44
2023-05-17T15:25:27.751Z,101613.13
2023-05-17T15:27:59.113Z,101608.56
2023-05-17T15:30:28.534Z,101612.94
2023-05-17T15:36:01.221Z,101613.97
2023-05-17T15:38:27.365Z,101612.34
2023-05-17T15:41:06.880Z,101610.72
2023-05-17T15:44:00.448Z,101608.75
2023-05-17T15:46:29.361Z,101606.84
2023-05-17T15:48:58.102Z,101602.22
2023-05-17T15:51:28.046Z,101602.03
2023-05-17T15:54:03.654Z,101600.03
2023-05-17T16:01:00.617Z,101602.66
2023-05-17T16:03:28.944Z,101597.06
2023-05-17T16:08:28.097Z,101592.81
2023-05-17T16:12:05.414Z,101587.88
2023-05-17T16:19:28.061Z,101589.91
2023-05-17T16:22:28.889Z,101589.72
2023-05-17T16:25:29.669Z,101588.19
2023-05-17T16:28:14.966Z,101584.28
2023-05-17T16:30:58.608Z,101583.91
2023-05-17T16:34:31.118Z,101588.94
2023-05-17T16:37:32.109Z,101587.16
2023-05-17T16:44:28.632Z,101589.91
2023-05-17T16:48:28.953Z,101590.94
2023-05-17T16:55:28.983Z,101581.13
2023-05-17T16:58:33.850Z,101575.38
2023-05-17T17:04:32.365Z,101580.19
2023-05-17T17:10:59.315Z,101570.22
2023-05-17T17:14:27.369Z,101573.94
2023-05-17T17:16:34.109Z,101569.84
2023-05-17T17:26:12.224Z,101583.19
2023-05-17T17:28:58.309Z,101576.91
2023-05-17T17:31:32.752Z,101574.00
2023-05-17T17:35:29.702Z,101576.66
2023-05-17T17:42:33.207Z,101585.63
2023-05-17T17:45:40.795Z,101576.56
2023-05-17T17:48:09.381Z,101565.84
2023-05-17T17:50:40.730Z,101563.53
2023-05-17T17:54:30.854Z,101567.78
2023-05-17T17:57:32.010Z,101560.56
2023-05-17T18:02:56.407Z,101555.97
2023-05-17T18:05:34.509Z,101554.75
2023-05-17T18:11:39.742Z,101553.28
2023-05-17T18:14:36.826Z,101555.69
2023-05-17T18:21:19.869Z,101560.69
2023-05-17T18:30:38.588Z,101556.53
2023-05-17T18:33:40.744Z,101548.91
2023-05-17T18:39:35.257Z,101547.44
2023-05-17T18:49:35.154Z,101551.22
2023-05-17T18:57:45.460Z,101525.00
2023-05-17T19:01:35.528Z,101532.00
2023-05-17T19:04:37.693Z,101514.94
2023-05-17T19:07:35.113Z,101509.75
2023-05-17T19:10:34.790Z,101503.72
2023-05-17T19:16:05.263Z,101504.19
2023-05-17T19:21:40.419Z,101497.38
2023-05-17T19:30:45.463Z,101489.69
2023-05-17T19:33:43.341Z,101479.22
2023-05-17T19:36:44.027Z,101474.03
2023-05-17T19:39:37.288Z,101474.72
2023-05-17T19:45:35.684Z,101469.78
2023-05-17T19:49:22.466Z,101474.16
2023-05-17T19:51:37.993Z,101460.50
2023-05-17T19:54:37.394Z,101457.66
2023-05-17T19:57:36.973Z,101457.31
2023-05-17T20:00:09.164Z,101452.19
2023-05-17T20:04:38.084Z,101455.59
2023-05-17T20:05:41.678Z,101458.78
2023-05-17T20:11:10.614Z,101455.66
2023-05-17T20:13:42.544Z,101451.00
2023-05-17T20:16:44.895Z,101443.06
2023-05-17T20:19:41.738Z,101444.47
2023-05-17T20:22:10.915Z,101437.38
2023-05-17T20:24:39.924Z,101438.09
2023-05-17T20:27:09.277Z,101425.38
2023-05-17T20:38:43.498Z,101420.47
2023-05-17T20:44:44.805Z,101412.88
2023-05-17T20:50:43.857Z,101415.00
2023-05-17T20:54:16.028Z,101409.03
2023-05-17T20:56:45.643Z,101397.84
2023-05-17T20:59:20.931Z,101397.59
2023-05-17T21:02:46.078Z,101400.44
2023-05-17T21:05:19.457Z,101395.78
2023-05-17T21:08:13.823Z,101382.72
2023-05-17T21:10:47.779Z,101394.47
2023-05-17T21:20:42.219Z,101386.31
2023-05-17T21:36:48.516Z,101366.09
2023-05-17T21:39:17.349Z,101368.91
2023-05-17T21:41:45.794Z,101368.47
2023-05-17T21:46:46.878Z,101371.44
2023-05-17T21:49:45.784Z,101374.16
2023-05-17T21:52:14.233Z,101365.78
2023-05-17T21:54:46.335Z,101358.28
2023-05-17T21:57:15.037Z,101357.84
2023-05-17T21:59:53.888Z,101361.22
2023-05-17T22:02:54.804Z,101352.03
2023-05-17T22:05:44.820Z,101349.31
2023-05-17T22:08:15.858Z,101332.56
2023-05-17T22:10:45.169Z,101330.59
2023-05-17T22:24:46.259Z,101319.47
2023-05-17T22:29:47.733Z,101316.63
2023-05-17T22:40:15.878Z,101312.38
2023-05-17T22:42:49.489Z,101312.69
2023-05-17T22:48:58.120Z,101305.00
2023-05-17T23:47:51.432Z,101255.94
2023-05-17T23:53:29.718Z,101248.00
